Time;durP1;ratioP1;P1;durP2;ratioP2;P2;SDS_P1;SDS_P2;PMS_P1;PMS_P2;Temp;Humidity;BMP_temperature;BMP_pressure;BME280_temperature;BME280_humidity;BME280_pressure;Samples;Min_cycle;Max_cycle;Signal;HPM_P1;HPM_P2
2023/09/12 00:01:15;;;;;;;11.80;7.03;;;19.70;20.70;;;;;;4973133;28;20189;-77
2023/09/12 00:03:41;;;;;;;8.88;6.63;;;19.70;3.20;;;;;;4955475;28;20213;-78
2023/09/12 00:06:06;;;;;;;10.85;7.35;;;19.80;38.70;;;;;;4972763;28;20220;-78
2023/09/12 00:08:32;;;;;;;8.95;6.80;;;19.80;1.00;;;;;;4972913;28;20200;-78
2023/09/12 00:11:02;;;;;;;9.00;6.90;;;19.80;4.70;;;;;;4972954;28;20185;-77
2023/09/12 00:13:28;;;;;;;8.18;7.07;;;19.80;1.00;;;;;;4972402;28;20204;-78
2023/09/12 00:15:54;;;;;;;10.48;7.32;;;19.80;1.00;;;;;;4973002;28;20219;-78
2023/09/12 00:18:20;;;;;;;9.60;6.85;;;19.80;1.00;;;;;;4972892;28;20185;-78
2023/09/12 00:20:45;;;;;;;11.60;7.63;;;19.80;1.00;;;;;;4972978;28;20223;-78
2023/09/12 00:23:11;;;;;;;9.48;7.03;;;19.80;1.00;;;;;;4954996;28;20220;-78
2023/09/12 00:25:36;;;;;;;9.68;7.05;;;19.70;1.00;;;;;;4973104;28;20185;-77
2023/09/12 00:28:02;;;;;;;10.02;7.15;;;19.70;1.00;;;;;;4972785;28;20193;-78
2023/09/12 00:30:28;;;;;;;8.00;6.72;;;19.70;1.00;;;;;;4972621;28;20699;-79
2023/09/12 00:32:53;;;;;;;7.80;6.80;;;19.70;1.00;;;;;;4972311;28;20264;-79
2023/09/12 00:35:19;;;;;;;9.00;7.70;;;19.70;5.10;;;;;;4972516;28;20226;-78
2023/09/12 00:37:44;;;;;;;10.07;6.82;;;19.70;1.00;;;;;;4972486;28;20185;-78
2023/09/12 00:40:10;;;;;;;8.95;6.50;;;19.70;79.80;;;;;;4971792;28;20308;-78
2023/09/12 00:42:36;;;;;;;8.88;6.97;;;19.70;53.80;;;;;;4971563;28;20177;-78
2023/09/12 00:45:01;;;;;;;8.48;7.03;;;19.50;99.90;;;;;;4972573;28;20240;-78
2023/09/12 00:47:28;;;;;;;8.75;6.50;;;19.50;99.90;;;;;;4972443;28;20193;-78
2023/09/12 00:49:56;;;;;;;13.23;7.07;;;19.50;99.90;;;;;;4972274;28;20196;-78
2023/09/12 00:52:27;;;;;;;9.02;6.97;;;19.50;99.90;;;;;;4971978;28;20184;-78
2023/09/12 00:54:54;;;;;;;8.95;7.13;;;19.50;99.90;;;;;;4972426;28;20212;-78
2023/09/12 00:57:21;;;;;;;12.02;6.88;;;19.50;99.90;;;;;;4954887;28;20185;-77
2023/09/12 00:59:48;;;;;;;8.70;7.18;;;19.50;99.90;;;;;;4971867;28;20283;-77
2023/09/12 01:02:14;;;;;;;11.10;7.10;;;19.50;99.90;;;;;;4972205;28;20189;-77
2023/09/12 01:04:40;;;;;;;10.57;7.00;;;19.40;99.90;;;;;;4972116;28;20291;-77
2023/09/12 01:07:06;;;;;;;7.53;6.65;;;19.30;99.90;;;;;;4972341;28;20272;-78
2023/09/12 01:09:32;;;;;;;7.50;6.75;;;19.30;99.90;;;;;;4954814;28;20208;-78
2023/09/12 01:12:00;;;;;;;9.10;6.60;;;19.30;99.90;;;;;;4971943;28;20181;-78
2023/09/12 01:14:26;;;;;;;9.00;7.28;;;19.30;99.90;;;;;;4954294;28;20197;-78
2023/09/12 01:16:51;;;;;;;7.57;6.82;;;19.30;99.90;;;;;;4972113;28;20192;-78
2023/09/12 01:19:19;;;;;;;7.90;6.50;;;19.30;99.90;;;;;;4972143;28;20192;-78
2023/09/12 01:21:47;;;;;;;7.20;6.60;;;19.30;99.90;;;;;;4954115;28;20185;-77
2023/09/12 01:24:31;;;;;;;7.60;6.82;;;19.30;99.90;;;;;;4971410;28;20225;-78
2023/09/12 01:27:19;;;;;;;8.30;7.03;;;19.30;99.90;;;;;;4970718;28;20417;-77
2023/09/12 01:29:46;;;;;;;10.38;7.93;;;19.30;99.90;;;;;;4971620;28;20689;-78
2023/09/12 01:32:14;;;;;;;8.30;7.35;;;19.30;99.90;;;;;;4971234;28;20268;-78
2023/09/12 01:34:39;;;;;;;8.65;7.22;;;19.20;99.90;;;;;;4971278;28;20566;-78
2023/09/12 01:37:05;;;;;;;7.95;7.15;;;19.20;99.90;;;;;;4954121;28;20177;-77
2023/09/12 01:39:31;;;;;;;8.80;7.47;;;19.20;99.90;;;;;;4971373;28;20546;-78
2023/09/12 01:41:59;;;;;;;10.43;7.97;;;19.20;99.90;;;;;;4971517;28;20225;-78
2023/09/12 01:44:27;;;;;;;10.48;7.55;;;19.20;1.00;;;;;;4971162;28;20701;-78
2023/09/12 01:46:54;;;;;;;9.48;7.88;;;19.10;1.00;;;;;;4971242;28;20189;-78
2023/09/12 01:49:22;;;;;;;10.13;9.02;;;19.10;1.00;;;;;;4971054;28;20205;-78
2023/09/12 01:51:48;;;;;;;12.68;8.52;;;19.00;1.00;;;;;;4970478;28;20197;-78
2023/09/12 01:54:14;;;;;;;9.45;8.43;;;18.90;1.00;;;;;;4971315;28;20692;-78
2023/09/12 01:56:41;;;;;;;11.25;7.85;;;18.90;33.30;;;;;;4971117;28;20199;-77
2023/09/12 01:59:07;;;;;;;9.10;7.88;;;18.90;1.00;;;;;;4971186;28;20260;-78
2023/09/12 02:01:32;;;;;;;11.02;8.15;;;18.90;1.00;;;;;;4970905;28;20259;-78
2023/09/12 02:03:58;;;;;;;13.10;8.63;;;19.00;1.00;;;;;;4970624;28;20208;-78
2023/09/12 02:06:23;;;;;;;11.73;7.97;;;19.00;1.00;;;;;;4953714;28;20181;-78
2023/09/12 02:08:49;;;;;;;9.27;8.25;;;18.80;54.50;;;;;;4970952;28;20184;-77
2023/09/12 02:11:15;;;;;;;9.07;8.18;;;18.80;24.40;;;;;;4970930;28;20600;-78
2023/09/12 02:13:40;;;;;;;10.82;8.43;;;18.80;38.80;;;;;;4970256;28;20214;-78
2023/09/12 02:16:06;;;;;;;10.00;7.82;;;18.90;3.50;;;;;;4970955;28;20596;-78
2023/09/12 02:18:31;;;;;;;13.25;9.10;;;18.90;1.00;;;;;;4970949;28;20526;-78
2023/09/12 02:20:58;;;;;;;10.70;8.32;;;18.80;1.00;;;;;;4970795;28;20180;-77
2023/09/12 02:23:24;;;;;;;11.40;8.10;;;18.80;6.80;;;;;;4970459;28;20248;-77
2023/09/12 02:25:49;;;;;;;10.02;9.00;;;18.90;1.00;;;;;;4970810;28;20219;-78
2023/09/12 02:28:15;;;;;;;10.63;8.40;;;18.90;1.00;;;;;;4970631;28;20657;-78
2023/09/12 02:30:41;;;;;;;14.25;9.90;;;18.90;1.00;;;;;;4970523;28;20201;-78
2023/09/12 02:33:07;;;;;;;12.15;8.32;;;18.90;1.00;;;;;;4970411;28;20251;-78
2023/09/12 02:35:32;;;;;;;10.25;9.18;;;18.90;1.00;;;;;;4970757;28;20189;-77
2023/09/12 02:37:58;;;;;;;13.07;10.43;;;18.90;1.00;;;;;;4970733;28;20284;-78
2023/09/12 02:40:24;;;;;;;10.88;9.63;;;18.80;25.50;;;;;;4953359;28;20192;-77
2023/09/12 02:42:49;;;;;;;10.50;8.88;;;18.80;4.60;;;;;;4970047;28;20212;-77
2023/09/12 02:45:15;;;;;;;14.88;9.93;;;18.80;56.40;;;;;;4970656;28;20191;-77
2023/09/12 02:47:43;;;;;;;10.88;9.85;;;18.80;6.90;;;;;;4970658;28;20185;-77
2023/09/12 02:50:09;;;;;;;10.63;9.55;;;18.80;1.00;;;;;;4971271;28;20204;-77
2023/09/12 02:52:34;;;;;;;10.23;9.25;;;18.80;1.00;;;;;;4952985;28;20177;-77
2023/09/12 02:55:00;;;;;;;10.85;9.60;;;18.80;1.00;;;;;;4953287;28;20200;-77
2023/09/12 02:57:25;;;;;;;13.30;9.43;;;18.90;1.00;;;;;;4970390;28;20192;-77
2023/09/12 02:59:51;;;;;;;10.60;9.55;;;18.90;1.00;;;;;;4971706;28;20275;-79
2023/09/12 03:02:16;;;;;;;10.32;9.32;;;18.80;1.00;;;;;;4952586;28;20193;-78
2023/09/12 03:04:42;;;;;;;11.10;9.73;;;18.80;1.00;;;;;;4971605;28;20606;-78
2023/09/12 03:07:08;;;;;;;12.15;10.55;;;18.80;1.00;;;;;;4956906;28;20212;-77
2023/09/12 03:09:33;;;;;;;12.40;9.82;;;18.80;99.90;;;;;;4974314;28;20204;-78
2023/09/12 03:12:02;;;;;;;11.23;10.07;;;18.80;1.00;;;;;;4974224;28;20548;-78
2023/09/12 03:14:28;;;;;;;11.80;10.60;;;18.80;21.10;;;;;;4974003;28;20265;-78
2023/09/12 03:16:54;;;;;;;12.38;10.93;;;18.80;69.80;;;;;;4974240;28;20180;-78
2023/09/12 03:19:19;;;;;;;11.27;10.10;;;18.80;99.90;;;;;;4974125;28;20263;-78
2023/09/12 03:21:45;;;;;;;13.10;11.75;;;18.80;46.10;;;;;;4973957;28;20181;-78
2023/09/12 03:24:11;;;;;;;12.73;11.38;;;18.50;1.00;;;;;;4956216;28;20236;-79
2023/09/12 03:26:36;;;;;;;12.05;10.77;;;18.50;1.00;;;;;;4974047;28;20181;-78
2023/09/12 03:29:03;;;;;;;13.18;11.88;;;18.60;1.00;;;;;;4973745;28;20201;-79
2023/09/12 03:31:29;;;;;;;15.95;12.50;;;18.60;1.00;;;;;;4973271;28;20501;-79
2023/09/12 03:33:54;;;;;;;15.25;12.80;;;18.60;1.00;;;;;;4973493;28;20283;-79
2023/09/12 03:36:20;;;;;;;15.63;11.98;;;18.70;1.00;;;;;;4973798;28;20276;-79
2023/09/12 03:38:45;;;;;;;14.15;12.07;;;18.60;1.00;;;;;;4973245;28;20181;-78
2023/09/12 03:41:11;;;;;;;15.73;12.95;;;18.60;1.00;;;;;;4973657;28;20184;-78
2023/09/12 03:43:37;;;;;;;16.88;12.45;;;18.60;1.00;;;;;;4973446;28;20201;-78
2023/09/12 03:46:03;;;;;;;16.33;13.30;;;18.60;1.00;;;;;;4973493;28;20181;-78
2023/09/12 03:48:32;;;;;;;14.95;12.93;;;18.60;1.00;;;;;;4973531;28;20597;-78
2023/09/12 03:50:57;;;;;;;14.18;12.70;;;18.60;1.00;;;;;;4973357;28;20304;-78
2023/09/12 03:53:23;;;;;;;14.80;13.18;;;18.60;1.00;;;;;;4973217;28;20681;-77
2023/09/12 03:55:49;;;;;;;15.73;13.27;;;18.60;1.00;;;;;;4973413;28;20645;-78
2023/09/12 03:58:14;;;;;;;15.15;13.57;;;18.60;1.00;;;;;;4973628;28;20181;-78
2023/09/12 04:00:40;;;;;;;16.42;12.73;;;18.60;1.00;;;;;;4973326;28;20232;-78
2023/09/12 04:03:05;;;;;;;15.80;14.18;;;18.60;1.00;;;;;;4973369;28;20232;-78
2023/09/12 04:05:31;;;;;;;17.38;14.27;;;18.50;1.00;;;;;;4973405;28;20253;-78
2023/09/12 04:07:57;;;;;;;15.40;13.40;;;18.50;1.00;;;;;;4973181;28;20215;-78
2023/09/12 04:10:23;;;;;;;14.80;13.30;;;18.50;1.00;;;;;;4973191;28;20208;-77
2023/09/12 04:12:48;;;;;;;16.77;14.93;;;18.50;1.00;;;;;;4972841;28;20185;-78
2023/09/12 04:15:14;;;;;;;16.77;14.68;;;18.50;1.00;;;;;;4955731;28;20185;-77
2023/09/12 04:17:39;;;;;;;15.65;13.88;;;18.50;1.00;;;;;;4972830;28;20208;-77
2023/09/12 04:20:06;;;;;;;15.55;13.93;;;18.50;1.00;;;;;;4963539;28;20267;-77
2023/09/12 04:22:31;;;;;;;16.15;14.50;;;18.50;1.00;;;;;;4971574;28;20421;-78
2023/09/12 04:24:57;;;;;;;14.37;13.03;;;18.60;1.00;;;;;;4972260;28;20422;-78
2023/09/12 04:27:22;;;;;;;15.15;13.60;;;18.60;1.00;;;;;;4973151;28;20661;-78
2023/09/12 04:29:48;;;;;;;20.42;14.98;;;18.50;1.00;;;;;;4955640;28;20205;-77
2023/09/12 04:32:13;;;;;;;15.20;13.70;;;18.50;1.00;;;;;;4973039;28;20547;-78
2023/09/12 04:34:42;;;;;;;14.70;13.25;;;18.50;1.00;;;;;;4955609;28;20201;-78
2023/09/12 04:37:08;;;;;;;16.45;14.85;;;18.50;1.00;;;;;;4972779;28;20189;-78
2023/09/12 04:39:33;;;;;;;15.20;13.70;;;18.50;1.00;;;;;;4972849;28;20188;-78
2023/09/12 04:41:59;;;;;;;15.38;13.77;;;18.50;1.00;;;;;;4972512;28;20272;-79
2023/09/12 04:44:24;;;;;;;15.52;13.93;;;18.50;1.00;;;;;;4972433;28;20208;-79
2023/09/12 04:46:50;;;;;;;16.80;15.10;;;18.50;1.00;;;;;;4972649;28;20188;-78
2023/09/12 04:49:16;;;;;;;18.33;16.50;;;18.50;66.10;;;;;;4972348;28;20208;-78
2023/09/12 04:51:42;;;;;;;17.67;15.88;;;18.40;99.90;;;;;;4955108;28;20177;-79
2023/09/12 04:54:08;;;;;;;17.95;16.17;;;18.30;1.00;;;;;;4971647;28;20252;-79
2023/09/12 04:56:34;;;;;;;15.90;14.45;;;18.20;1.00;;;;;;4972205;28;20181;-79
2023/09/12 04:59:00;;;;;;;18.48;15.70;;;18.20;15.20;;;;;;4972178;28;20189;-78
2023/09/12 05:01:26;;;;;;;17.80;15.85;;;18.30;1.00;;;;;;4972353;28;20189;-78
2023/09/12 05:03:51;;;;;;;18.73;16.55;;;18.40;1.00;;;;;;4971795;28;20215;-78
2023/09/12 05:06:17;;;;;;;19.88;15.82;;;18.40;1.00;;;;;;4972194;28;20181;-79
2023/09/12 05:08:42;;;;;;;17.10;15.40;;;18.40;99.90;;;;;;4972005;28;20240;-79
2023/09/12 05:11:08;;;;;;;16.63;14.90;;;18.40;99.90;;;;;;4972069;28;20212;-78
2023/09/12 05:13:34;;;;;;;18.67;15.77;;;18.40;99.90;;;;;;4971679;28;20256;-79
2023/09/12 05:16:00;;;;;;;16.45;14.88;;;18.50;99.90;;;;;;4971677;28;20204;-79
2023/09/12 05:18:25;;;;;;;15.25;13.75;;;18.50;99.90;;;;;;4971892;28;20180;-78
2023/09/12 05:20:51;;;;;;;17.83;16.02;;;18.60;73.10;;;;;;4971977;28;20619;-79
2023/09/12 05:23:16;;;;;;;17.48;15.63;;;18.60;99.90;;;;;;4954174;28;20220;-79
2023/09/12 05:25:42;;;;;;;14.88;13.48;;;18.60;99.90;;;;;;4971701;28;20216;-78
2023/09/12 05:28:07;;;;;;;15.93;14.38;;;18.60;1.00;;;;;;4970144;28;20192;-79
2023/09/12 05:30:33;;;;;;;16.02;14.50;;;18.70;1.00;;;;;;4970707;28;20748;-79
2023/09/12 05:32:59;;;;;;;15.68;14.18;;;18.70;1.00;;;;;;4970631;28;20259;-79
2023/09/12 05:35:24;;;;;;;16.10;14.35;;;18.80;99.90;;;;;;4971856;28;20181;-79
2023/09/12 05:37:51;;;;;;;15.60;13.98;;;18.80;1.00;;;;;;4971735;28;20223;-79
2023/09/12 05:40:18;;;;;;;16.30;14.73;;;18.90;99.90;;;;;;4953096;28;20183;-79
2023/09/12 05:42:44;;;;;;;15.65;14.18;;;19.00;99.90;;;;;;4970062;28;20184;-79
2023/09/12 05:45:09;;;;;;;15.40;13.88;;;19.10;99.90;;;;;;4970713;28;20201;-79
2023/09/12 05:47:35;;;;;;;16.63;15.07;;;19.10;99.90;;;;;;4953232;28;20180;-79
2023/09/12 05:50:04;;;;;;;16.02;14.48;;;19.30;99.90;;;;;;4970726;28;20648;-78
2023/09/12 05:52:30;;;;;;;15.43;14.02;;;19.30;99.90;;;;;;4970627;28;20268;-79
2023/09/12 05:54:56;;;;;;;17.30;15.68;;;19.30;99.90;;;;;;4970423;28;20184;-79
2023/09/12 05:57:21;;;;;;;15.50;14.05;;;19.40;99.90;;;;;;4970406;28;20564;-79
2023/09/12 05:59:47;;;;;;;15.70;14.23;;;19.50;99.90;;;;;;4970471;28;20193;-79
2023/09/12 06:02:13;;;;;;;15.43;13.98;;;19.60;1.00;;;;;;4971212;28;20227;-79
2023/09/12 06:04:38;;;;;;;15.80;14.30;;;19.70;1.00;;;;;;4971114;28;20200;-78
2023/09/12 06:07:04;;;;;;;15.38;13.88;;;19.90;1.00;;;;;;4971453;28;20192;-79
2023/09/12 06:09:30;;;;;;;14.65;13.35;;;20.00;1.00;;;;;;4970655;28;20737;-80
2023/09/12 06:11:56;;;;;;;16.60;15.10;;;20.10;99.90;;;;;;4970324;28;20203;-79
2023/09/12 06:14:22;;;;;;;14.73;13.13;;;20.10;1.00;;;;;;4970191;28;20197;-79
2023/09/12 06:16:48;;;;;;;14.38;12.88;;;20.20;99.90;;;;;;4970139;28;20196;-79
2023/09/12 06:19:17;;;;;;;17.73;14.18;;;20.30;99.90;;;;;;4969961;28;20260;-79
2023/09/12 06:21:43;;;;;;;21.15;14.77;;;20.20;1.00;;;;;;4969953;28;20733;-79
2023/09/12 06:24:14;;;;;;;15.75;13.95;;;20.20;1.00;;;;;;4967682;28;20323;-79
2023/09/12 06:26:40;;;;;;;13.88;12.57;;;20.30;1.00;;;;;;4953248;28;20192;-78
2023/09/12 06:29:06;;;;;;;14.35;13.07;;;20.50;99.90;;;;;;4970052;28;20236;-78
2023/09/12 06:31:32;;;;;;;14.35;12.85;;;20.70;99.90;;;;;;4970466;28;20260;-79
2023/09/12 06:33:57;;;;;;;14.45;12.95;;;20.70;99.90;;;;;;4969936;28;20296;-79
2023/09/12 06:36:25;;;;;;;14.48;13.15;;;20.80;99.90;;;;;;4970452;28;20209;-79
2023/09/12 06:38:51;;;;;;;14.43;13.13;;;20.80;99.90;;;;;;4972525;28;20269;-79
2023/09/12 06:41:19;;;;;;;17.13;13.93;;;20.80;99.90;;;;;;4974261;28;20556;-80
2023/09/12 06:43:45;;;;;;;17.17;15.32;;;20.90;99.90;;;;;;4974389;28;20632;-79
2023/09/12 06:46:10;;;;;;;15.00;13.52;;;20.90;99.90;;;;;;4974240;28;20216;-78
2023/09/12 06:48:36;;;;;;;16.45;14.85;;;21.10;99.90;;;;;;4974344;28;20271;-79
2023/09/12 06:51:05;;;;;;;15.95;13.80;;;20.90;99.90;;;;;;4974078;28;20240;-80
2023/09/12 06:53:31;;;;;;;16.10;14.45;;;20.90;99.90;;;;;;4973683;28;20211;-79
2023/09/12 06:55:59;;;;;;;15.15;13.60;;;20.70;99.90;;;;;;4974300;28;20268;-79
2023/09/12 06:58:25;;;;;;;14.93;13.52;;;20.70;1.00;;;;;;4974132;28;20201;-79
2023/09/12 07:00:51;;;;;;;14.35;12.85;;;20.70;1.00;;;;;;4974479;28;20200;-79
2023/09/12 07:03:17;;;;;;;19.55;14.10;;;20.70;1.00;;;;;;4973792;28;20216;-79
2023/09/12 07:05:43;;;;;;;16.33;13.60;;;20.70;1.00;;;;;;4973986;28;20189;-79
2023/09/12 07:08:09;;;;;;;16.60;14.95;;;20.60;1.00;;;;;;4973995;28;20192;-79
2023/09/12 07:10:35;;;;;;;16.90;15.40;;;20.50;1.00;;;;;;4974066;28;20243;-79
2023/09/12 07:13:01;;;;;;;17.20;15.40;;;20.40;1.00;;;;;;4973992;28;20205;-79
2023/09/12 07:15:27;;;;;;;20.88;17.05;;;20.40;1.00;;;;;;4956428;28;20229;-79
2023/09/12 07:17:52;;;;;;;17.30;15.73;;;20.40;69.60;;;;;;4973941;28;20193;-79
2023/09/12 07:20:19;;;;;;;17.33;15.70;;;20.30;1.00;;;;;;4973387;28;20193;-78
2023/09/12 07:22:46;;;;;;;18.08;15.93;;;20.20;99.90;;;;;;4973198;28;20580;-78
2023/09/12 07:25:13;;;;;;;17.92;16.10;;;20.00;1.00;;;;;;4974270;28;20203;-78
2023/09/12 07:27:39;;;;;;;17.10;15.60;;;20.00;97.70;;;;;;4973984;28;20261;-78
2023/09/12 07:30:06;;;;;;;15.90;14.27;;;19.90;99.90;;;;;;4974382;28;20228;-77
2023/09/12 07:32:32;;;;;;;13.32;11.18;;;19.80;99.90;;;;;;4974959;28;20267;-77
2023/09/12 07:34:58;;;;;;;11.07;10.00;;;19.80;1.00;;;;;;4972184;28;20237;-79
2023/09/12 07:37:23;;;;;;;10.25;9.38;;;19.70;99.90;;;;;;4973131;28;20268;-79
2023/09/12 07:39:49;;;;;;;10.98;9.98;;;19.70;99.90;;;;;;4956501;28;20216;-79
2023/09/12 07:42:15;;;;;;;11.10;10.10;;;19.90;1.00;;;;;;4973240;28;20189;-80
2023/09/12 07:44:40;;;;;;;11.85;10.63;;;19.90;99.90;;;;;;4973239;28;20244;-79
2023/09/12 07:47:07;;;;;;;11.98;10.43;;;19.90;99.90;;;;;;4973794;28;20199;-79
2023/09/12 07:49:32;;;;;;;11.40;10.25;;;20.20;99.90;;;;;;4972739;28;20209;-80
2023/09/12 07:51:58;;;;;;;13.30;9.82;;;20.60;1.00;;;;;;4973334;28;20276;-79
2023/09/12 07:54:23;;;;;;;116.93;30.45;;;20.90;1.00;;;;;;4973333;28;20272;-79
2023/09/12 07:56:49;;;;;;;8.32;7.53;;;21.10;99.90;;;;;;4973878;28;20181;-80
2023/09/12 07:59:15;;;;;;;10.02;6.78;;;21.30;1.00;;;;;;4972943;28;20185;-79
2023/09/12 08:01:40;;;;;;;5.47;4.97;;;21.50;1.00;;;;;;4972841;28;20187;-79
2023/09/12 08:04:06;;;;;;;19.75;5.07;;;21.60;1.00;;;;;;4972261;28;20220;-79
2023/09/12 08:06:33;;;;;;;144.00;15.25;;;21.50;1.00;;;;;;4972758;28;20192;-79
2023/09/12 08:08:58;;;;;;;22.67;4.78;;;21.70;99.90;;;;;;4972812;28;20260;-79
2023/09/12 08:11:24;;;;;;;407.88;19.50;;;21.80;99.90;;;;;;4972873;28;20320;-79
2023/09/12 08:13:50;;;;;;;3.20;2.90;;;22.00;99.90;;;;;;4972514;28;20276;-79
2023/09/12 08:16:16;;;;;;;4.55;2.47;;;22.20;99.90;;;;;;4972655;28;20191;-79
2023/09/12 08:18:42;;;;;;;2.78;2.22;;;22.30;99.90;;;;;;4973325;28;20248;-80
2023/09/12 08:21:08;;;;;;;3.88;2.60;;;22.40;99.90;;;;;;4955028;28;20196;-79
2023/09/12 08:23:34;;;;;;;3.95;2.20;;;22.60;99.90;;;;;;4972676;28;20233;-78
2023/09/12 08:26:00;;;;;;;240.95;161.70;;;22.80;99.90;;;;;;4973148;28;20645;-79
2023/09/12 08:28:25;;;;;;;5.85;5.43;;;23.00;99.90;;;;;;4973649;28;20792;-79
2023/09/12 08:30:51;;;;;;;229.35;133.77;;;23.00;99.90;;;;;;4973107;28;20668;-79
2023/09/12 08:33:17;;;;;;;2.00;1.80;;;23.10;41.60;;;;;;4973270;28;20752;-79
2023/09/12 08:35:43;;;;;;;2.70;2.47;;;23.30;43.60;;;;;;4973139;28;20249;-79
2023/09/12 08:38:08;;;;;;;2.03;1.55;;;23.30;54.50;;;;;;4973230;28;20184;-79
2023/09/12 08:40:35;;;;;;;450.40;16.23;;;23.30;65.80;;;;;;4972888;28;20284;-79
2023/09/12 08:43:03;;;;;;;269.42;12.45;;;23.50;45.70;;;;;;4973027;28;20293;-79
2023/09/12 08:45:29;;;;;;;25.40;4.47;;;23.60;34.40;;;;;;4943495;28;20217;-78
2023/09/12 08:47:58;;;;;;;5.10;2.70;;;23.60;52.30;;;;;;4973204;28;20185;-79
2023/09/12 08:50:24;;;;;;;103.95;17.20;;;23.60;48.10;;;;;;4973031;28;20796;-79
2023/09/12 08:52:50;;;;;;;75.32;9.52;;;23.50;33.30;;;;;;4972559;28;20271;-79
2023/09/12 08:55:16;;;;;;;107.55;16.35;;;23.30;21.00;;;;;;4973167;28;20188;-79
2023/09/12 08:57:43;;;;;;;3.38;2.47;;;23.30;45.20;;;;;;4973259;28;20533;-79
2023/09/12 09:00:12;;;;;;;4.20;2.70;;;23.20;20.60;;;;;;4973159;28;20196;-79
2023/09/12 09:02:39;;;;;;;2.92;2.40;;;23.10;36.30;;;;;;4971691;28;20204;-79
2023/09/12 09:05:08;;;;;;;3.22;3.03;;;23.20;31.40;;;;;;4972488;28;20193;-79
2023/09/12 09:07:39;;;;;;;2.75;2.47;;;23.20;37.70;;;;;;4972774;28;20216;-79
2023/09/12 09:10:07;;;;;;;3.35;2.63;;;23.30;47.30;;;;;;4972630;28;20209;-79
2023/09/12 09:12:34;;;;;;;35.33;6.80;;;23.20;35.90;;;;;;4972448;28;20183;-79
2023/09/12 09:15:19;;;;;;;3.15;2.85;;;23.30;13.90;;;;;;4973117;28;20191;-79
2023/09/12 09:17:45;;;;;;;2.85;2.50;;;23.40;7.00;;;;;;4972877;28;20217;-79
2023/09/12 09:20:30;;;;;;;3.45;2.60;;;23.50;1.00;;;;;;4972786;28;20680;-79
2023/09/12 09:23:01;;;;;;;2.80;2.50;;;23.70;1.00;;;;;;4971179;28;20299;-79
2023/09/12 09:25:27;;;;;;;2.90;2.70;;;23.70;1.00;;;;;;4973537;28;20249;-80
2023/09/12 09:27:53;;;;;;;138.38;43.95;;;23.90;1.00;;;;;;4974020;28;20189;-79
2023/09/12 09:30:45;;;;;;;3.22;3.00;;;23.90;1.00;;;;;;4973376;28;20275;-79
2023/09/12 09:33:11;;;;;;;2.78;2.58;;;23.90;1.00;;;;;;4955685;28;20295;-77
2023/09/12 09:35:39;;;;;;;4.03;2.90;;;23.70;1.00;;;;;;4973431;28;21133;-79
2023/09/12 09:38:06;;;;;;;3.15;2.85;;;23.80;1.00;;;;;;4972939;28;20185;-79
2023/09/12 09:40:33;;;;;;;3.10;2.78;;;23.90;1.00;;;;;;4973237;28;20185;-79
2023/09/12 09:43:00;;;;;;;2.63;2.42;;;23.80;1.00;;;;;;4972515;28;20216;-78
2023/09/12 09:45:28;;;;;;;2.95;2.75;;;23.70;1.00;;;;;;4955262;28;20181;-79
2023/09/12 09:47:58;;;;;;;3.05;2.60;;;23.90;1.00;;;;;;4972799;28;20197;-79
2023/09/12 09:50:24;;;;;;;3.28;2.60;;;24.00;1.00;;;;;;4971645;28;20219;-78
2023/09/12 09:52:57;;;;;;;2.45;2.25;;;24.10;1.00;;;;;;4972139;28;20185;-79
2023/09/12 09:55:23;;;;;;;3.17;2.75;;;24.20;1.00;;;;;;4972097;28;20653;-78
2023/09/12 09:57:52;;;;;;;4.32;2.70;;;24.30;1.00;;;;;;4972365;28;20300;-79
2023/09/12 10:00:20;;;;;;;4.18;2.78;;;24.30;1.00;;;;;;4975206;28;20568;-79
2023/09/12 10:02:48;;;;;;;5.68;4.03;;;24.30;1.00;;;;;;4971328;28;20182;-79
2023/09/12 10:05:17;;;;;;;5.72;4.93;;;23.90;1.00;;;;;;4973479;28;20193;-79
2023/09/12 10:07:47;;;;;;;5.43;4.90;;;23.60;60.60;;;;;;4955650;28;20184;-79
2023/09/12 10:10:13;;;;;;;6.43;5.55;;;23.50;99.90;;;;;;4971219;28;20217;-77
2023/09/12 10:12:55;;;;;;;5.70;5.20;;;23.10;99.90;;;;;;4970825;28;20193;-79
2023/09/12 10:15:22;;;;;;;5.97;4.90;;;23.20;99.90;;;;;;4970962;28;20653;-78
2023/09/12 10:17:56;;;;;;;5.32;4.82;;;23.20;99.90;;;;;;4971295;28;20192;-79
2023/09/12 10:20:28;;;;;;;5.97;5.38;;;23.10;99.90;;;;;;4972095;28;20177;-80
2023/09/12 10:23:08;;;;;;;5.93;5.32;;;23.10;99.90;;;;;;4973416;28;20221;-78
2023/09/12 10:25:36;;;;;;;6.85;5.78;;;23.20;99.90;;;;;;4972481;28;20199;-78
2023/09/12 10:28:04;;;;;;;6.25;5.65;;;23.50;99.90;;;;;;4972687;28;20735;-80
2023/09/12 10:30:30;;;;;;;6.65;5.82;;;23.50;99.90;;;;;;4969960;28;20892;-78
2023/09/12 10:32:57;;;;;;;6.38;5.30;;;23.70;99.90;;;;;;4971569;28;20196;-78
2023/09/12 10:35:23;;;;;;;8.15;5.40;;;24.10;99.90;;;;;;4970064;28;20225;-78
2023/09/12 10:37:50;;;;;;;5.88;5.38;;;24.20;99.90;;;;;;4968870;28;20193;-79
2023/09/12 10:40:17;;;;;;;6.85;5.55;;;24.30;99.90;;;;;;4972220;28;20184;-79
2023/09/12 10:42:43;;;;;;;7.05;6.30;;;24.50;99.90;;;;;;4954741;28;20191;-79
2023/09/12 10:45:09;;;;;;;6.65;5.90;;;24.10;99.90;;;;;;4956228;28;20224;-79
2023/09/12 10:47:36;;;;;;;7.03;6.32;;;24.10;99.90;;;;;;4974025;28;20649;-79
2023/09/12 10:50:03;;;;;;;7.38;6.68;;;24.00;99.90;;;;;;4973726;28;20367;-79
2023/09/12 10:52:29;;;;;;;5.80;5.20;;;23.80;99.90;;;;;;4972379;28;20177;-79
2023/09/12 10:54:56;;;;;;;5.60;5.00;;;23.70;99.90;;;;;;4971831;28;20205;-79
2023/09/12 10:57:22;;;;;;;6.85;4.75;;;23.90;99.90;;;;;;4971606;28;20197;-79
2023/09/12 11:00:10;;;;;;;4.50;4.10;;;23.90;99.90;;;;;;4971876;28;20195;-79
2023/09/12 11:02:43;;;;;;;5.18;4.70;;;24.20;99.90;;;;;;4971459;28;20181;-80
2023/09/12 11:05:33;;;;;;;5.43;4.50;;;24.40;95.60;;;;;;4972572;28;20232;-79
2023/09/12 11:08:00;;;;;;;6.47;4.55;;;24.40;92.90;;;;;;4959706;28;20619;-78
2023/09/12 11:10:28;;;;;;;5.13;3.88;;;24.50;26.10;;;;;;4954892;28;20205;-79
2023/09/12 11:12:56;;;;;;;3.67;3.10;;;24.30;10.70;;;;;;4972909;28;20204;-78
2023/09/12 11:15:27;;;;;;;2.53;2.33;;;24.30;1.00;;;;;;4954728;28;20185;-79
2023/09/12 11:18:06;;;;;;;1.88;1.77;;;24.40;1.00;;;;;;4955157;28;20673;-80
2023/09/12 11:20:52;;;;;;;2.10;1.90;;;24.60;1.00;;;;;;4973096;28;20193;-80
2023/09/12 11:23:19;;;;;;;1.90;1.70;;;24.90;1.00;;;;;;4972114;28;20299;-79
2023/09/12 11:25:44;;;;;;;2.10;2.00;;;25.00;1.00;;;;;;4957095;28;20187;-79
2023/09/12 11:28:11;;;;;;;3.60;2.13;;;24.90;1.00;;;;;;4975661;28;20220;-79
2023/09/12 11:30:54;;;;;;;2.28;2.08;;;24.70;1.00;;;;;;4958918;28;20256;-78
2023/09/12 11:33:21;;;;;;;2.53;2.25;;;24.50;1.00;;;;;;4958281;28;20283;-79
2023/09/12 11:35:51;;;;;;;2.85;2.50;;;24.60;1.00;;;;;;4960402;28;20689;-79
2023/09/12 11:38:29;;;;;;;4.07;2.40;;;24.90;1.00;;;;;;4976667;28;20607;-79
2023/09/12 11:40:55;;;;;;;3.35;2.60;;;25.00;1.00;;;;;;4958454;28;20315;-79
2023/09/12 11:43:25;;;;;;;2.47;2.20;;;24.80;1.00;;;;;;4975610;28;20244;-79
2023/09/12 11:45:51;;;;;;;4.10;2.42;;;24.90;1.00;;;;;;4974889;28;20193;-80
2023/09/12 11:48:18;;;;;;;2.75;2.20;;;25.00;1.00;;;;;;4958289;28;20199;-79
2023/09/12 11:50:50;;;;;;;2.50;2.30;;;25.00;1.00;;;;;;4958309;28;20244;-80
2023/09/12 11:53:21;;;;;;;2.40;2.20;;;25.20;1.00;;;;;;4973413;28;20268;-80
2023/09/12 11:55:51;;;;;;;2.70;2.50;;;24.90;1.00;;;;;;4975826;28;20260;-80
2023/09/12 11:58:18;;;;;;;3.00;2.50;;;24.70;1.00;;;;;;4975781;28;20235;-79
2023/09/12 12:00:55;;;;;;;3.35;3.05;;;24.80;1.00;;;;;;4957776;28;20552;-80
2023/09/12 12:03:25;;;;;;;3.63;2.58;;;24.80;1.00;;;;;;4974277;28;20212;-80
2023/09/12 12:05:51;;;;;;;14.52;3.65;;;24.90;1.00;;;;;;4957780;28;20216;-77
2023/09/12 12:08:18;;;;;;;2.92;2.70;;;24.80;1.00;;;;;;4974548;28;20185;-79
2023/09/12 12:10:48;;;;;;;3.65;3.33;;;24.80;1.00;;;;;;4958122;28;20212;-79
2023/09/12 12:13:18;;;;;;;3.85;3.47;;;24.90;1.00;;;;;;4974440;28;20276;-80
2023/09/12 12:15:44;;;;;;;3.90;3.60;;;24.80;1.00;;;;;;4974823;28;20184;-79
2023/09/12 12:18:10;;;;;;;3.60;3.30;;;24.80;1.00;;;;;;4974774;28;20675;-79
2023/09/12 12:20:35;;;;;;;4.30;3.70;;;24.80;1.00;;;;;;4976083;28;20725;-80
2023/09/12 12:23:01;;;;;;;4.85;3.80;;;24.80;1.00;;;;;;4975686;28;20268;-79
2023/09/12 12:25:31;;;;;;;4.38;3.97;;;25.00;1.00;;;;;;4959126;28;20212;-79
2023/09/12 12:27:56;;;;;;;4.78;4.38;;;24.90;1.00;;;;;;4976264;28;20661;-80
2023/09/12 12:30:22;;;;;;;4.80;4.32;;;24.90;1.00;;;;;;4974334;28;20216;-80
2023/09/12 12:32:50;;;;;;;5.30;4.80;;;24.90;1.00;;;;;;4974701;28;20661;-79
2023/09/12 12:35:20;;;;;;;5.35;4.78;;;24.80;1.00;;;;;;4973139;28;20188;-80
2023/09/12 12:37:53;;;;;;;6.13;5.28;;;24.90;1.00;;;;;;4956593;28;20232;-79
2023/09/12 12:40:19;;;;;;;5.55;5.05;;;24.40;1.00;;;;;;4973474;28;20289;-80
2023/09/12 12:42:48;;;;;;;5.05;4.43;;;24.50;1.00;;;;;;4972024;28;20260;-79